createdAt,value
2023-04-28T00:01:16.784Z,12.90
2023-04-28T00:03:43.632Z,12.89
2023-04-28T00:06:11.469Z,12.88
2023-04-28T00:08:38.096Z,12.85
2023-04-28T00:11:09.049Z,12.79
2023-04-28T00:13:35.836Z,12.75
2023-04-28T00:16:02.439Z,12.70
2023-04-28T00:18:29.240Z,12.66
2023-04-28T00:20:56.453Z,12.57
2023-04-28T00:23:23.089Z,12.47
2023-04-28T00:25:53.218Z,12.41
2023-04-28T00:28:32.918Z,12.36
2023-04-28T00:31:01.132Z,12.33
2023-04-28T00:33:27.743Z,12.28
2023-04-28T00:36:01.430Z,12.25
2023-04-28T00:38:28.382Z,12.24
2023-04-28T00:40:55.038Z,12.21
2023-04-28T00:43:21.787Z,12.17
2023-04-28T00:45:52.064Z,12.12
2023-04-28T00:48:19.553Z,12.09
2023-04-28T00:50:47.566Z,12.06
2023-04-28T00:53:14.308Z,12.01
2023-04-28T00:55:41.185Z,11.91
2023-04-28T00:58:08.319Z,11.80
2023-04-28T01:00:35.133Z,11.73
2023-04-28T01:03:01.846Z,11.65
2023-04-28T01:05:29.443Z,11.65
2023-04-28T01:07:56.227Z,11.67
2023-04-28T01:10:22.911Z,11.67
2023-04-28T01:12:49.504Z,11.74
2023-04-28T01:15:16.974Z,11.81
2023-04-28T01:17:44.088Z,11.88
2023-04-28T01:20:11.228Z,11.96
2023-04-28T01:22:37.774Z,11.99
2023-04-28T01:25:04.607Z,12.06
2023-04-28T01:27:31.199Z,12.07
2023-04-28T01:29:58.524Z,12.08
2023-04-28T01:32:25.158Z,12.06
2023-04-28T01:34:51.970Z,12.05
2023-04-28T01:37:18.549Z,12.05
2023-04-28T01:39:45.089Z,12.06
2023-04-28T01:42:11.917Z,12.10
2023-04-28T01:44:38.497Z,12.13
2023-04-28T01:47:05.228Z,12.13
2023-04-28T01:49:32.249Z,12.11
2023-04-28T01:51:58.804Z,12.11
2023-04-28T01:54:26.089Z,12.09
2023-04-28T01:56:52.692Z,12.07
2023-04-28T01:59:20.489Z,12.03
2023-04-28T02:01:47.106Z,12.02
2023-04-28T02:04:13.893Z,12.00
2023-04-28T02:06:40.653Z,12.01
2023-04-28T02:09:07.291Z,12.03
2023-04-28T02:11:33.944Z,12.06
2023-04-28T02:14:00.496Z,12.07
2023-04-28T02:16:47.044Z,12.05
2023-04-28T02:19:13.654Z,12.06
2023-04-28T02:21:41.610Z,12.05
2023-04-28T02:24:08.992Z,12.03
2023-04-28T02:26:35.605Z,12.06
2023-04-28T02:29:04.340Z,12.07
2023-04-28T02:31:31.655Z,12.06
2023-04-28T02:33:58.282Z,12.05
2023-04-28T02:36:24.995Z,12.00
2023-04-28T02:38:52.104Z,11.99
2023-04-28T02:41:18.763Z,12.00
2023-04-28T02:43:45.477Z,12.01
2023-04-28T02:46:12.064Z,11.98
2023-04-28T02:48:38.660Z,12.00
2023-04-28T02:51:05.610Z,12.05
2023-04-28T02:53:32.204Z,12.03
2023-04-28T02:55:59.523Z,12.03
2023-04-28T02:58:26.862Z,11.98
2023-04-28T03:00:53.456Z,11.97
2023-04-28T03:03:20.221Z,11.99
2023-04-28T03:05:46.911Z,12.03
2023-04-28T03:08:13.480Z,12.05
2023-04-28T03:10:40.147Z,12.06
2023-04-28T03:13:07.163Z,12.05
2023-04-28T03:15:33.761Z,12.00
2023-04-28T03:18:01.255Z,12.01
2023-04-28T03:20:27.919Z,12.00
2023-04-28T03:22:54.464Z,11.96
2023-04-28T03:25:21.024Z,12.00
2023-04-28T03:27:47.619Z,11.97
2023-04-28T03:30:14.262Z,11.96
2023-04-28T03:32:40.928Z,11.93
2023-04-28T03:35:07.666Z,11.89
2023-04-28T03:37:34.310Z,11.91
2023-04-28T03:40:00.876Z,11.91
2023-04-28T03:42:27.552Z,11.92
2023-04-28T03:44:54.066Z,11.93
2023-04-28T03:47:20.588Z,11.96
2023-04-28T03:49:47.244Z,11.97
2023-04-28T03:52:13.752Z,11.90
2023-04-28T03:54:41.473Z,11.86
2023-04-28T03:57:08.103Z,11.85
2023-04-28T03:59:34.708Z,11.89
2023-04-28T04:02:01.323Z,11.93
2023-04-28T04:04:28.313Z,12.01
2023-04-28T04:06:55.097Z,12.01
2023-04-28T04:09:21.853Z,12.06
2023-04-28T04:11:48.370Z,12.05
2023-04-28T04:14:15.174Z,12.08
2023-04-28T04:16:41.925Z,12.03
2023-04-28T04:19:08.559Z,12.06
2023-04-28T04:21:35.196Z,12.09
2023-04-28T04:24:01.777Z,12.13
2023-04-28T04:26:28.302Z,12.16
2023-04-28T04:28:54.894Z,12.25
2023-04-28T04:31:22.584Z,12.27
2023-04-28T04:33:49.644Z,12.23
2023-04-28T04:36:16.390Z,12.20
2023-04-28T04:38:42.923Z,12.19
2023-04-28T04:41:09.465Z,12.16
2023-04-28T04:43:36.109Z,12.10
2023-04-28T04:46:04.103Z,12.14
2023-04-28T04:48:30.929Z,12.15
2023-04-28T04:50:57.495Z,12.23
2023-04-28T04:53:24.252Z,12.26
2023-04-28T04:55:50.987Z,12.31
2023-04-28T04:58:17.955Z,12.31
2023-04-28T05:00:44.640Z,12.34
2023-04-28T05:03:11.867Z,12.36
2023-04-28T05:05:38.629Z,12.43
2023-04-28T05:08:05.964Z,12.46
2023-04-28T05:10:32.949Z,12.45
2023-04-28T05:12:59.604Z,12.42
2023-04-28T05:15:26.296Z,12.43
2023-04-28T05:17:52.982Z,12.48
2023-04-28T05:20:19.713Z,12.52
2023-04-28T05:22:46.307Z,12.60
2023-04-28T05:25:12.865Z,12.69
2023-04-28T05:27:40.946Z,12.84
2023-04-28T05:30:08.369Z,12.97
2023-04-28T05:32:35.740Z,13.02
2023-04-28T05:35:02.698Z,13.07
2023-04-28T05:37:29.851Z,13.10
2023-04-28T05:39:56.568Z,13.08
2023-04-28T05:42:23.154Z,13.08
2023-04-28T05:44:49.732Z,13.14
2023-04-28T05:47:16.327Z,13.24
2023-04-28T05:49:42.886Z,13.28
2023-04-28T05:52:09.444Z,13.28
2023-04-28T05:54:36.158Z,13.26
2023-04-28T05:57:02.826Z,13.25
2023-04-28T05:59:30.688Z,13.26
2023-04-28T06:01:57.357Z,13.31
2023-04-28T06:04:25.587Z,13.40
2023-04-28T06:06:52.761Z,13.55
2023-04-28T06:09:19.376Z,13.61
2023-04-28T06:11:45.960Z,13.70
2023-04-28T06:14:12.597Z,13.83
2023-04-28T06:16:41.447Z,13.89
2023-04-28T06:19:08.102Z,13.90
2023-04-28T06:21:34.739Z,14.01
2023-04-28T06:24:02.063Z,14.10
2023-04-28T06:26:29.251Z,14.09
2023-04-28T06:28:55.905Z,14.16
2023-04-28T06:31:22.827Z,14.22
2023-04-28T06:33:49.456Z,14.14
2023-04-28T06:36:17.897Z,14.11
2023-04-28T06:38:45.132Z,13.99
2023-04-28T06:41:11.992Z,14.04
2023-04-28T06:43:38.661Z,14.05
2023-04-28T06:46:05.422Z,14.03
2023-04-28T06:48:32.075Z,14.05
2023-04-28T06:50:58.607Z,14.06
2023-04-28T06:53:25.170Z,14.04
2023-04-28T06:55:51.739Z,14.03
2023-04-28T06:58:18.395Z,13.97
2023-04-28T07:00:45.100Z,14.01
2023-04-28T07:03:12.013Z,14.03
2023-04-28T07:05:38.771Z,14.10
2023-04-28T07:08:06.842Z,14.12
2023-04-28T07:10:33.369Z,14.05
2023-04-28T07:12:59.963Z,14.02
2023-04-28T07:15:26.796Z,14.04
2023-04-28T07:17:53.612Z,14.03
2023-04-28T07:20:20.428Z,14.02
2023-04-28T07:22:46.973Z,14.09
2023-04-28T07:25:13.637Z,14.17
2023-04-28T07:27:40.285Z,14.16
2023-04-28T07:30:25.216Z,14.16
2023-04-28T07:32:53.228Z,14.12
2023-04-28T07:35:19.886Z,13.96
2023-04-28T07:37:46.493Z,13.85
2023-04-28T07:40:13.221Z,13.73
2023-04-28T07:42:39.777Z,13.67
2023-04-28T07:45:06.782Z,13.64
2023-04-28T07:47:33.480Z,13.73
2023-04-28T07:50:03.557Z,13.89
2023-04-28T07:52:30.482Z,14.14
2023-04-28T07:54:57.328Z,14.35
2023-04-28T07:57:23.899Z,14.53
2023-04-28T07:59:50.715Z,14.61
2023-04-28T08:02:17.393Z,14.64
2023-04-28T08:04:44.170Z,14.58
2023-04-28T08:07:10.965Z,14.52
2023-04-28T08:09:37.615Z,14.46
2023-04-28T08:12:04.183Z,14.39
2023-04-28T08:14:30.739Z,14.25
2023-04-28T08:16:57.646Z,14.13
2023-04-28T08:19:24.340Z,14.07
2023-04-28T08:21:51.081Z,14.04
2023-04-28T08:24:17.842Z,13.85
2023-04-28T08:26:44.728Z,13.63
2023-04-28T08:29:11.609Z,13.47
2023-04-28T08:31:38.700Z,13.37
2023-04-28T08:34:05.305Z,13.31
2023-04-28T08:36:33.315Z,13.28
2023-04-28T08:39:03.150Z,13.25
2023-04-28T08:41:32.332Z,13.21
2023-04-28T08:43:58.882Z,13.17
2023-04-28T08:46:27.453Z,13.17
2023-04-28T08:48:58.419Z,13.24
2023-04-28T08:51:33.433Z,13.25
2023-04-28T08:56:35.949Z,13.08
2023-04-28T08:59:04.224Z,12.93
2023-04-28T09:01:31.472Z,12.79
2023-04-28T09:04:00.990Z,12.73
2023-04-28T09:06:28.271Z,12.73
2023-04-28T09:08:57.184Z,12.72
2023-04-28T09:11:23.764Z,12.83
2023-04-28T09:13:50.359Z,13.01
2023-04-28T09:16:17.254Z,13.18
2023-04-28T09:18:56.025Z,13.32
2023-04-28T09:21:22.608Z,13.44
2023-04-28T09:23:50.675Z,13.43
2023-04-28T09:26:17.563Z,13.45
2023-04-28T09:28:44.366Z,13.52
2023-04-28T09:31:25.238Z,13.61
2023-04-28T09:33:58.366Z,13.73
2023-04-28T09:36:29.709Z,13.82
2023-04-28T09:39:00.227Z,13.92
2023-04-28T09:41:42.917Z,13.92
2023-04-28T09:44:17.656Z,13.96
2023-04-28T09:46:45.298Z,13.91
2023-04-28T09:49:15.498Z,13.90
2023-04-28T09:51:42.648Z,13.85
2023-04-28T09:54:09.459Z,13.80
2023-04-28T09:56:41.979Z,13.77
2023-04-28T09:59:08.849Z,13.71
2023-04-28T10:01:40.631Z,13.71
2023-04-28T10:04:08.148Z,13.80
2023-04-28T10:06:38.139Z,13.94
2023-04-28T10:09:05.628Z,14.03
2023-04-28T10:11:33.933Z,14.13
2023-04-28T10:14:00.606Z,14.35
2023-04-28T10:16:30.358Z,14.56
2023-04-28T10:18:57.706Z,14.76
2023-04-28T10:21:25.324Z,14.86
2023-04-28T10:24:16.173Z,14.97
2023-04-28T10:27:01.541Z,15.15
2023-04-28T10:29:28.825Z,15.29
2023-04-28T10:32:14.213Z,15.51
2023-04-28T10:34:40.794Z,15.58
2023-04-28T10:37:07.416Z,15.52
2023-04-28T10:39:34.148Z,15.43
2023-04-28T10:42:00.758Z,15.30
2023-04-28T10:44:30.157Z,15.14
2023-04-28T10:47:02.207Z,14.98
2023-04-28T10:49:47.227Z,14.86
2023-04-28T10:52:32.643Z,14.77
2023-04-28T10:55:22.114Z,14.64
2023-04-28T10:58:09.031Z,14.36
2023-04-28T11:00:35.690Z,14.14
2023-04-28T11:03:02.420Z,13.85
2023-04-28T11:05:31.968Z,13.73
2023-04-28T11:08:16.948Z,13.58
2023-04-28T11:11:02.363Z,13.38
2023-04-28T11:13:34.300Z,13.24
2023-04-28T11:16:04.462Z,13.05
2023-04-28T11:18:54.932Z,12.98
2023-04-28T11:21:23.431Z,12.91
2023-04-28T11:23:50.419Z,12.90
2023-04-28T11:26:17.270Z,12.94
2023-04-28T11:28:51.066Z,13.08
2023-04-28T11:31:20.683Z,13.22
2023-04-28T11:33:49.567Z,13.35
2023-04-28T11:36:23.215Z,13.47
2023-04-28T11:38:49.751Z,13.62
2023-04-28T11:41:16.529Z,13.67
2023-04-28T11:43:47.283Z,13.73
2023-04-28T11:46:18.283Z,13.83
2023-04-28T11:48:45.449Z,13.83
2023-04-28T11:51:28.239Z,13.79
2023-04-28T11:53:55.052Z,13.76
2023-04-28T11:56:21.666Z,13.81
2023-04-28T11:59:00.666Z,13.88
2023-04-28T12:01:28.301Z,13.93
2023-04-28T12:03:55.977Z,14.00
2023-04-28T12:06:22.693Z,14.01
2023-04-28T12:08:49.360Z,13.99
2023-04-28T12:11:20.116Z,14.02
2023-04-28T12:14:06.225Z,14.07
2023-04-28T12:16:44.269Z,14.16
2023-04-28T12:19:11.506Z,14.19
2023-04-28T12:21:39.586Z,14.25
2023-04-28T12:24:19.926Z,14.28
2023-04-28T12:26:47.433Z,14.19
2023-04-28T12:29:32.655Z,14.04
2023-04-28T12:31:59.455Z,13.81
2023-04-28T12:34:27.351Z,13.61
2023-04-28T12:36:54.027Z,13.46
2023-04-28T12:39:23.038Z,13.26
2023-04-28T12:41:49.640Z,13.10
2023-04-28T12:44:16.205Z,13.03
2023-04-28T12:46:42.879Z,12.97
2023-04-28T12:49:09.673Z,12.91
2023-04-28T12:51:38.925Z,12.85
2023-04-28T12:54:05.618Z,12.80
2023-04-28T12:56:32.185Z,12.71
2023-04-28T12:58:58.768Z,12.66
2023-04-28T13:01:25.364Z,12.58
2023-04-28T13:03:53.724Z,12.46
2023-04-28T13:06:20.602Z,12.41
2023-04-28T13:08:47.183Z,12.52
2023-04-28T13:11:22.697Z,12.58
2023-04-28T13:13:49.789Z,12.66
2023-04-28T13:16:16.400Z,12.57
2023-04-28T13:18:43.327Z,12.62
2023-04-28T13:21:09.904Z,12.56
2023-04-28T13:23:36.630Z,12.61
2023-04-28T13:26:04.394Z,12.64
2023-04-28T13:28:31.026Z,12.65
2023-04-28T13:30:57.629Z,12.63
2023-04-28T13:33:30.957Z,12.46
2023-04-28T13:35:58.499Z,12.20
2023-04-28T13:38:25.890Z,11.96
2023-04-28T13:40:53.084Z,11.87
2023-04-28T13:43:19.693Z,11.79
2023-04-28T13:45:46.536Z,11.75
2023-04-28T13:48:13.373Z,11.64
2023-04-28T13:50:39.979Z,11.42
2023-04-28T13:53:06.601Z,11.33
2023-04-28T13:55:33.229Z,11.08
2023-04-28T13:58:04.558Z,10.95
2023-04-28T14:00:32.659Z,10.72
2023-04-28T14:03:00.316Z,10.72
2023-04-28T14:05:29.741Z,10.64
2023-04-28T14:07:56.925Z,10.58
2023-04-28T14:10:23.449Z,10.43
2023-04-28T14:12:50.508Z,10.30
2023-04-28T14:15:18.074Z,10.23
2023-04-28T14:17:44.765Z,10.22
2023-04-28T14:20:11.736Z,10.25
2023-04-28T14:22:38.906Z,10.34
2023-04-28T14:25:05.656Z,10.35
2023-04-28T14:27:33.485Z,10.32
2023-04-28T14:30:00.856Z,10.38
2023-04-28T14:32:27.889Z,10.41
2023-04-28T14:34:54.511Z,10.49
2023-04-28T14:37:21.293Z,10.42
2023-04-28T14:39:48.620Z,10.37
2023-04-28T14:42:15.293Z,10.32
2023-04-28T14:44:41.862Z,10.32
2023-04-28T14:47:08.446Z,10.23
2023-04-28T14:49:35.139Z,10.10
2023-04-28T14:52:01.830Z,9.96
2023-04-28T14:54:28.685Z,10.06
2023-04-28T14:56:55.213Z,9.94
2023-04-28T14:59:21.846Z,9.83
2023-04-28T15:01:50.588Z,9.81
2023-04-28T15:04:17.433Z,9.73
2023-04-28T15:06:44.090Z,9.69
2023-04-28T15:09:10.821Z,9.71
2023-04-28T15:11:37.364Z,9.75
2023-04-28T15:14:03.979Z,9.71
2023-04-28T15:16:30.594Z,9.65
2023-04-28T15:18:57.180Z,9.57
2023-04-28T15:21:23.941Z,9.57
2023-04-28T15:23:50.490Z,9.58
2023-04-28T15:26:17.367Z,9.57
2023-04-28T15:28:43.987Z,9.58
2023-04-28T15:31:10.587Z,9.65
2023-04-28T15:33:37.439Z,9.59
2023-04-28T15:36:05.158Z,9.53
2023-04-28T15:38:31.758Z,9.48
2023-04-28T15:40:58.379Z,9.50
2023-04-28T15:43:25.374Z,9.46
2023-04-28T15:45:52.527Z,9.50
2023-04-28T15:48:19.166Z,9.41
2023-04-28T15:50:46.675Z,9.41
2023-04-28T15:53:13.342Z,9.40
2023-04-28T15:55:40.042Z,9.33
2023-04-28T15:58:08.128Z,9.32
2023-04-28T16:00:35.120Z,9.34
2023-04-28T16:03:01.762Z,9.31
2023-04-28T16:05:28.492Z,9.34
2023-04-28T16:07:55.139Z,9.12
2023-04-28T16:10:22.138Z,9.09
2023-04-28T16:12:48.768Z,9.04
2023-04-28T16:15:15.391Z,9.04
2023-04-28T16:17:42.303Z,9.06
2023-04-28T16:20:09.907Z,9.03
2023-04-28T16:22:36.792Z,9.05
2023-04-28T16:25:06.721Z,9.06
2023-04-28T16:27:36.633Z,9.03
2023-04-28T16:30:04.975Z,9.03
2023-04-28T16:32:33.674Z,9.00
2023-04-28T16:35:00.611Z,9.04
2023-04-28T16:37:27.224Z,8.96
2023-04-28T16:39:53.807Z,8.94
2023-04-28T16:42:23.338Z,8.94
2023-04-28T16:44:52.472Z,8.92
2023-04-28T16:47:19.631Z,9.01
2023-04-28T16:49:46.280Z,8.95
2023-04-28T16:52:13.026Z,8.92
2023-04-28T16:54:39.750Z,8.75
2023-04-28T16:57:06.434Z,8.62
2023-04-28T16:59:34.016Z,8.60
2023-04-28T17:02:05.838Z,8.57
2023-04-28T17:04:32.934Z,8.56
2023-04-28T17:06:59.811Z,8.49
2023-04-28T17:09:27.543Z,8.45
2023-04-28T17:11:55.036Z,8.35
2023-04-28T17:14:21.719Z,8.36
2023-04-28T17:16:48.287Z,8.27
2023-04-28T17:19:14.954Z,8.22
2023-04-28T17:21:41.523Z,8.23
2023-04-28T17:24:08.943Z,8.20
2023-04-28T17:26:36.426Z,8.20
2023-04-28T17:29:03.667Z,8.17
2023-04-28T17:31:30.411Z,8.20
2023-04-28T17:33:57.760Z,8.20
2023-04-28T17:36:26.031Z,8.18
2023-04-28T17:38:53.296Z,8.10
2023-04-28T17:41:19.953Z,8.10
2023-04-28T17:43:46.683Z,8.10
2023-04-28T17:46:14.672Z,8.00
2023-04-28T17:48:42.512Z,7.98
2023-04-28T17:51:09.383Z,7.98
2023-04-28T17:53:37.442Z,8.00
2023-04-28T17:56:04.368Z,7.96
2023-04-28T17:58:32.720Z,7.96
2023-04-28T18:01:00.101Z,7.81
2023-04-28T18:03:27.181Z,7.78
2023-04-28T18:05:53.823Z,7.76
2023-04-28T18:08:20.489Z,7.69
2023-04-28T18:10:47.105Z,7.60
2023-04-28T18:13:13.676Z,7.73
2023-04-28T18:15:40.393Z,7.62
2023-04-28T18:18:06.940Z,7.63
2023-04-28T18:20:33.517Z,7.59
2023-04-28T18:23:00.181Z,7.63
2023-04-28T18:25:26.882Z,7.52
2023-04-28T18:27:54.028Z,7.39
2023-04-28T18:30:20.710Z,7.30
2023-04-28T18:32:48.865Z,7.27
2023-04-28T18:35:16.060Z,7.15
2023-04-28T18:37:46.055Z,7.14
2023-04-28T18:40:13.402Z,7.01
2023-04-28T18:42:39.995Z,6.91
2023-04-28T18:45:08.063Z,6.93
2023-04-28T18:47:35.192Z,6.83
2023-04-28T18:50:02.642Z,6.76
2023-04-28T18:52:30.198Z,6.73
2023-04-28T18:54:56.870Z,6.66
2023-04-28T18:57:23.482Z,6.72
2023-04-28T18:59:50.207Z,6.69
2023-04-28T19:02:17.859Z,6.70
2023-04-28T19:04:45.362Z,6.68
2023-04-28T19:07:11.981Z,6.68
2023-04-28T19:09:38.541Z,6.67
2023-04-28T19:12:05.244Z,6.53
2023-04-28T19:14:31.997Z,6.55
2023-04-28T19:16:58.661Z,6.53
2023-04-28T19:19:25.275Z,6.46
2023-04-28T19:21:52.611Z,6.44
2023-04-28T19:24:19.196Z,6.49
2023-04-28T19:26:45.839Z,6.38
2023-04-28T19:29:14.984Z,6.21
2023-04-28T19:31:41.525Z,5.97
2023-04-28T19:34:08.134Z,5.91
2023-04-28T19:36:35.629Z,5.92
2023-04-28T19:39:02.164Z,5.94
2023-04-28T19:41:29.160Z,5.92
2023-04-28T19:43:55.743Z,5.90
2023-04-28T19:46:22.744Z,5.82
2023-04-28T19:48:49.325Z,5.80
2023-04-28T19:51:16.979Z,5.81
2023-04-28T19:53:46.410Z,5.79
2023-04-28T19:56:13.901Z,5.84
2023-04-28T19:58:41.072Z,5.81
2023-04-28T20:01:07.827Z,5.83
2023-04-28T20:03:35.022Z,5.81
2023-04-28T20:06:01.665Z,5.78
2023-04-28T20:08:28.436Z,5.79
2023-04-28T20:10:55.101Z,5.85
2023-04-28T20:13:21.642Z,5.78
2023-04-28T20:15:48.343Z,5.80
2023-04-28T20:18:14.947Z,5.82
2023-04-28T20:20:41.544Z,5.77
2023-04-28T20:23:08.190Z,5.77
2023-04-28T20:25:37.912Z,5.79
2023-04-28T20:28:05.354Z,5.88
2023-04-28T20:30:32.091Z,5.87
2023-04-28T20:32:58.724Z,5.84
2023-04-28T20:35:25.363Z,5.72
2023-04-28T20:37:53.053Z,5.66
2023-04-28T20:40:19.670Z,5.62
2023-04-28T20:42:47.098Z,5.64
2023-04-28T20:45:13.698Z,5.66
2023-04-28T20:47:40.629Z,5.67
2023-04-28T20:50:10.850Z,5.69
2023-04-28T20:52:38.006Z,5.69
2023-04-28T20:55:04.970Z,5.74
2023-04-28T20:57:31.528Z,5.59
2023-04-28T20:59:58.080Z,5.53
2023-04-28T21:02:24.821Z,5.59
2023-04-28T21:04:52.218Z,5.57
2023-04-28T21:07:18.787Z,5.61
2023-04-28T21:09:45.447Z,5.53
2023-04-28T21:12:12.000Z,5.46
2023-04-28T21:14:38.888Z,5.49
2023-04-28T21:17:05.759Z,5.56
2023-04-28T21:19:32.537Z,5.60
2023-04-28T21:21:59.188Z,5.59
2023-04-28T21:24:26.166Z,5.57
2023-04-28T21:26:52.756Z,5.57
2023-04-28T21:29:19.385Z,5.52
2023-04-28T21:31:46.043Z,5.45
2023-04-28T21:34:12.687Z,5.40
2023-04-28T21:36:40.014Z,5.42
2023-04-28T21:39:07.727Z,5.32
2023-04-28T21:41:34.306Z,5.35
2023-04-28T21:44:00.909Z,5.31
2023-04-28T21:46:27.924Z,5.22
2023-04-28T21:48:55.242Z,5.13
2023-04-28T21:51:21.846Z,5.19
2023-04-28T21:53:48.782Z,5.11
2023-04-28T21:56:17.218Z,5.13
2023-04-28T21:58:43.803Z,5.09
2023-04-28T22:01:12.080Z,5.09
2023-04-28T22:03:38.967Z,5.02
2023-04-28T22:06:05.805Z,5.00
2023-04-28T22:08:33.784Z,4.94
2023-04-28T22:11:00.905Z,4.90
2023-04-28T22:13:27.712Z,4.85
2023-04-28T22:15:56.182Z,4.84
2023-04-28T22:18:22.812Z,4.83
2023-04-28T22:20:50.124Z,4.83
2023-04-28T22:23:16.735Z,4.79
2023-04-28T22:25:43.540Z,4.76
2023-04-28T22:28:10.083Z,4.80
2023-04-28T22:30:36.809Z,4.88
2023-04-28T22:33:03.924Z,4.83
2023-04-28T22:35:30.607Z,4.76
2023-04-28T22:37:57.318Z,4.73
2023-04-28T22:40:23.857Z,4.63
2023-04-28T22:42:50.394Z,4.70
2023-04-28T22:45:16.999Z,4.63
2023-04-28T22:47:43.591Z,4.61
2023-04-28T22:50:10.955Z,4.49
2023-04-28T22:52:37.624Z,4.51
2023-04-28T22:55:04.781Z,4.42
2023-04-28T22:57:31.347Z,4.39
2023-04-28T22:59:57.967Z,4.31
2023-04-28T23:02:25.447Z,4.21
2023-04-28T23:04:52.179Z,4.16
2023-04-28T23:07:18.895Z,4.13
2023-04-28T23:09:45.490Z,4.05
2023-04-28T23:12:12.246Z,3.97
2023-04-28T23:14:38.889Z,3.94
2023-04-28T23:17:05.639Z,3.98
2023-04-28T23:19:32.293Z,3.93
2023-04-28T23:21:59.025Z,3.89
2023-04-28T23:24:27.191Z,3.86
2023-04-28T23:26:53.840Z,3.86
2023-04-28T23:29:20.423Z,3.78
2023-04-28T23:31:52.289Z,3.77
2023-04-28T23:34:19.276Z,3.75
2023-04-28T23:36:45.873Z,3.71
2023-04-28T23:39:12.452Z,3.70
2023-04-28T23:41:39.157Z,3.74
2023-04-28T23:44:05.729Z,3.67
2023-04-28T23:46:32.266Z,3.67
2023-04-28T23:48:58.910Z,3.71
2023-04-28T23:51:25.879Z,3.62
2023-04-28T23:53:52.408Z,3.61
2023-04-28T23:56:18.944Z,3.48
2023-04-28T23:58:45.478Z,3.47
